Terminal Aerodrome Forecast
Issued by NWS

Current Version | Previous Version | Text Only | Print | Product List | Glossary On
Versions: 1 2 3 4 5 6 7 8 9 10 11 12 13 14 15 16 17 18 19
052
FTUS43 KOAX 011723
TAFBFF
TAF
KBFF 011723Z 0118/0218 01011KT P6SM BKN050
     FM020200 36005KT P6SM SCT150=

USA.gov is the U.S. government's official web portal to all federal, state and local government web resources and services.